Погода Стерлингна неделю

Виргиния, США

15 - 21 июня
  • 15июня
    Сегодня
    +17°
    +29°
    Ясно и безоблачно
    ВремяПогодаТемператураВлажностьДавлениеВетер, м/сВероятность осадков
    02:00Ясно и безоблачно+21°C96 %752 мм1.5 м/с8 %
    05:00Ясно и безоблачно+17°C91 %753 мм2.7 м/с2 %
    08:00Ясно и безоблачно+20°C79 %755 мм3.1 м/с2 %
    11:00Ясно и безоблачно+24°C46 %756 мм4.7 м/с2 %
    14:00Ясно и безоблачно+28°C34 %755 мм4.6 м/с2 %
    17:00Ясно и безоблачно+29°C30 %755 мм4.5 м/с2 %
    20:00Ясно и безоблачно+26°C55 %755 мм2.6 м/с2 %
    23:00Ясно и безоблачно+21°C59 %756 мм2.2 м/с2 %
  • 16июня
    Воскресенье
    +20°
    +31°
    Практически безоблачно
    ВремяПогодаТемператураВлажностьДавлениеВетер, м/сВероятность осадков
    02:00Небольшая облачность+19°C68 %757 мм0.7 м/с2 %
    05:00Ясно и безоблачно+17°C86 %758 мм1.2 м/с2 %
    08:00Ясно и безоблачно+21°C64 %759 мм1.6 м/с2 %
    11:00Небольшая облачность+27°C45 %759 мм2.9 м/с2 %
    14:00Практически безоблачно+30°C35 %758 мм3.9 м/с2 %
    17:00Облачно с прояснениями+31°C32 %756 мм4.7 м/с1 %
    20:00Облачно с прояснениями+28°C47 %756 мм4.6 м/с2 %
    23:00Облачно с прояснениями+23°C55 %757 мм4.0 м/с2 %
  • 17июня
    Понедельник
    +22°
    +35°
    Ясно и безоблачно
    ВремяПогодаТемператураВлажностьДавлениеВетер, м/сВероятность осадков
    02:00Практически безоблачно+21°C68 %758 мм3.2 м/с2 %
    05:00Ясно и безоблачно+20°C72 %758 мм3.3 м/с2 %
    08:00Ясно и безоблачно+23°C69 %758 мм3.7 м/с2 %
    11:00Ясно и безоблачно+29°C54 %758 мм4.1 м/с2 %
    14:00Ясно и безоблачно+33°C44 %757 мм3.7 м/с2 %
    17:00Практически безоблачно+34°C41 %756 мм4.1 м/с13 %
    20:00Ясно и безоблачно+32°C57 %756 мм3.9 м/с12 %
    23:00Ясно и безоблачно+27°C66 %758 мм3.2 м/с2 %
  • 18июня
    Вторник
    +21°
    +36°
    Ясно и безоблачно
    ВремяПогодаТемператураВлажностьДавлениеВетер, м/сВероятность осадков
    02:00Ясно и безоблачно+24°C67 %758 мм2.7 м/с2 %
    05:00Практически безоблачно+23°C70 %758 мм2.9 м/с2 %
    08:00Практически безоблачно+26°C66 %760 мм3.0 м/с2 %
    11:00Практически безоблачно+31°C51 %760 мм2.9 м/с2 %
    14:00Ясно и безоблачно+35°C40 %759 мм4.1 м/с2 %
    17:00Облачно с прояснениями+36°C37 %758 мм5.1 м/с9 %
    20:00Облачно с прояснениями+32°C45 %759 мм4.8 м/с5 %
    23:00Облачно с прояснениями+26°C45 %760 мм3.5 м/с2 %
  • 19июня
    Среда
    +20°
    +35°
    Практически безоблачно
    ВремяПогодаТемператураВлажностьДавлениеВетер, м/сВероятность осадков
    02:00Облачно с прояснениями+23°C58 %761 мм2.5 м/с2 %
    05:00Небольшая облачность+22°C74 %761 мм2.3 м/с2 %
    08:00Ясно и безоблачно+25°C69 %762 мм2.3 м/с2 %
    11:00Практически безоблачно+31°C47 %762 мм3.2 м/с2 %
    14:00Практически безоблачно+34°C36 %761 мм3.9 м/с2 %
    17:00Практически безоблачно+34°C31 %760 мм4.4 м/с2 %
    20:00Практически безоблачно+31°C43 %760 мм4.7 м/с3 %
    23:00Ясно и безоблачно+25°C61 %761 мм3.2 м/с2 %
Мы используем cookies
Соглашаюсь